Palmer Municipal Airport
PAAQ : now visible

Airfield :











YOU CAN JOIN US ON...

 
LOGIN :

Register | Disclaimer

   EN    FR    IT 

 









Legend :    VFR   Marginal VFR   IFR   Intensive IFR   Very Intensive IFR
Visi :
Ceiling :
>= 8 km
>= 3000ft
5 to 8 km
1000 to 3000 ft
1500m to 5 km
500 to 1000 ft
800 to 1500m
200 to 500 ft
< 800m
< 200 ft
Symbols :   Thunderstorms  Fog  Heavy snow  Heavy precipitations  Wind > 20 kt






- Airport Elevation : 242 ft
- IATA code : PAQ


PAAQ - Palmer Municipal

CURRENT METAR :
  • 010753Z AUTO 35003KT 10SM CLR 13/10 A3012 RMK AO2 SLP201 T01330100 TSNO $

EXPIRED METARs :
  • 010653Z AUTO 00000KT 10SM CLR 16/11 A3011 RMK AO2 SLP199 T01610106 TSNO $
  • 010553Z AUTO 00000KT 10SM CLR 17/11 A3011 RMK AO2 SLP199 T01720106 10233 20172 53012 TSNO $

TAF PAAQ
Valid from the 01 at 06:00 until the 02 at 06:00 UTC


010520Z 0106/0206 VRB05KT P6SM FEW100 BKN200
PAZA FIR / North America



MET'MAP, your aeronautical weather chart ! - Copyright ORBIFLY December 2007 - Disclaimer

ORBIFLY MET'MAP TEAM :

Programming & Development : Alexandra Zaïnal
Concept & original design : Baudouin d'Aumeries
Assistance for programming : Marc-Olivier Méhu
Technical & hardware support : Manuel Goepfert

Contact : metmap@orbifly.com




SOURCES & CREDITS :

   NOAA       Earth
Advisory